sensor_id;sensor_type;location;lat;lon;timestamp;P1;durP1;ratioP1;P2;durP2;ratioP2
61015;SDS011;46902;52.920;6.536;2024-01-07T00:00:35;14.65;;;11.63;;
61015;SDS011;46902;52.920;6.536;2024-01-07T00:03:01;15.60;;;11.63;;
61015;SDS011;46902;52.920;6.536;2024-01-07T00:05:27;15.43;;;11.57;;
61015;SDS011;46902;52.920;6.536;2024-01-07T00:07:53;13.43;;;10.90;;
61015;SDS011;46902;52.920;6.536;2024-01-07T00:10:19;15.02;;;11.73;;
61015;SDS011;46902;52.920;6.536;2024-01-07T00:12:45;12.93;;;10.27;;
61015;SDS011;46902;52.920;6.536;2024-01-07T00:15:13;14.73;;;10.38;;
61015;SDS011;46902;52.920;6.536;2024-01-07T00:17:39;14.38;;;10.73;;
61015;SDS011;46902;52.920;6.536;2024-01-07T00:20:05;13.88;;;10.65;;
61015;SDS011;46902;52.920;6.536;2024-01-07T00:22:31;15.35;;;11.50;;
61015;SDS011;46902;52.920;6.536;2024-01-07T00:24:57;15.45;;;11.50;;
61015;SDS011;46902;52.920;6.536;2024-01-07T00:27:23;17.15;;;10.73;;
61015;SDS011;46902;52.920;6.536;2024-01-07T00:29:49;16.33;;;11.55;;
61015;SDS011;46902;52.920;6.536;2024-01-07T00:32:15;15.32;;;11.55;;
61015;SDS011;46902;52.920;6.536;2024-01-07T00:34:41;15.15;;;11.10;;
61015;SDS011;46902;52.920;6.536;2024-01-07T00:37:07;16.90;;;12.07;;
61015;SDS011;46902;52.920;6.536;2024-01-07T00:39:33;14.77;;;11.30;;
61015;SDS011;46902;52.920;6.536;2024-01-07T00:41:59;17.05;;;12.00;;
61015;SDS011;46902;52.920;6.536;2024-01-07T00:44:25;14.93;;;10.98;;
61015;SDS011;46902;52.920;6.536;2024-01-07T00:46:51;16.30;;;11.35;;
61015;SDS011;46902;52.920;6.536;2024-01-07T00:49:17;16.45;;;11.60;;
61015;SDS011;46902;52.920;6.536;2024-01-07T00:51:43;14.27;;;10.93;;
61015;SDS011;46902;52.920;6.536;2024-01-07T00:54:09;14.55;;;11.45;;
61015;SDS011;46902;52.920;6.536;2024-01-07T00:56:35;19.17;;;11.73;;
61015;SDS011;46902;52.920;6.536;2024-01-07T00:59:01;15.00;;;10.18;;
61015;SDS011;46902;52.920;6.536;2024-01-07T01:01:27;15.10;;;11.10;;
61015;SDS011;46902;52.920;6.536;2024-01-07T01:03:53;16.02;;;11.48;;
61015;SDS011;46902;52.920;6.536;2024-01-07T01:06:19;13.13;;;10.05;;
61015;SDS011;46902;52.920;6.536;2024-01-07T01:08:45;13.40;;;10.43;;
61015;SDS011;46902;52.920;6.536;2024-01-07T01:11:11;14.00;;;10.50;;
61015;SDS011;46902;52.920;6.536;2024-01-07T01:13:37;18.48;;;11.45;;
61015;SDS011;46902;52.920;6.536;2024-01-07T01:16:03;14.48;;;9.95;;
61015;SDS011;46902;52.920;6.536;2024-01-07T01:18:29;12.88;;;9.88;;
61015;SDS011;46902;52.920;6.536;2024-01-07T01:20:55;12.10;;;9.60;;
61015;SDS011;46902;52.920;6.536;2024-01-07T01:23:21;12.65;;;9.98;;
61015;SDS011;46902;52.920;6.536;2024-01-07T01:25:48;11.95;;;9.88;;
61015;SDS011;46902;52.920;6.536;2024-01-07T01:28:14;15.93;;;10.18;;
61015;SDS011;46902;52.920;6.536;2024-01-07T01:30:40;12.70;;;9.88;;
61015;SDS011;46902;52.920;6.536;2024-01-07T01:33:06;12.73;;;9.63;;
61015;SDS011;46902;52.920;6.536;2024-01-07T01:35:32;15.82;;;10.40;;
61015;SDS011;46902;52.920;6.536;2024-01-07T01:37:58;12.80;;;8.88;;
61015;SDS011;46902;52.920;6.536;2024-01-07T01:40:24;13.60;;;8.82;;
61015;SDS011;46902;52.920;6.536;2024-01-07T01:42:50;13.05;;;9.43;;
61015;SDS011;46902;52.920;6.536;2024-01-07T01:45:16;13.18;;;9.25;;
61015;SDS011;46902;52.920;6.536;2024-01-07T01:47:43;13.35;;;9.50;;
61015;SDS011;46902;52.920;6.536;2024-01-07T01:50:10;13.82;;;9.23;;
61015;SDS011;46902;52.920;6.536;2024-01-07T01:52:36;12.10;;;8.85;;
61015;SDS011;46902;52.920;6.536;2024-01-07T01:55:02;12.70;;;9.88;;
61015;SDS011;46902;52.920;6.536;2024-01-07T01:57:32;11.90;;;8.95;;
61015;SDS011;46902;52.920;6.536;2024-01-07T01:59:59;12.40;;;8.55;;
61015;SDS011;46902;52.920;6.536;2024-01-07T02:02:29;11.60;;;8.93;;
61015;SDS011;46902;52.920;6.536;2024-01-07T02:04:56;11.80;;;8.50;;
61015;SDS011;46902;52.920;6.536;2024-01-07T02:07:23;11.07;;;8.55;;
61015;SDS011;46902;52.920;6.536;2024-01-07T02:09:49;12.60;;;8.65;;
61015;SDS011;46902;52.920;6.536;2024-01-07T02:12:15;12.43;;;8.23;;
61015;SDS011;46902;52.920;6.536;2024-01-07T02:14:41;11.10;;;7.70;;
61015;SDS011;46902;52.920;6.536;2024-01-07T02:17:07;12.70;;;8.68;;
61015;SDS011;46902;52.920;6.536;2024-01-07T02:19:33;13.45;;;8.40;;
61015;SDS011;46902;52.920;6.536;2024-01-07T02:21:59;11.23;;;8.13;;
61015;SDS011;46902;52.920;6.536;2024-01-07T02:24:25;12.52;;;8.15;;
61015;SDS011;46902;52.920;6.536;2024-01-07T02:26:51;12.18;;;7.63;;
61015;SDS011;46902;52.920;6.536;2024-01-07T02:29:17;13.23;;;8.70;;
61015;SDS011;46902;52.920;6.536;2024-01-07T02:31:43;11.05;;;7.90;;
61015;SDS011;46902;52.920;6.536;2024-01-07T02:34:09;12.77;;;7.53;;
61015;SDS011;46902;52.920;6.536;2024-01-07T02:36:36;10.88;;;8.48;;
61015;SDS011;46902;52.920;6.536;2024-01-07T02:39:02;10.60;;;7.80;;
61015;SDS011;46902;52.920;6.536;2024-01-07T02:41:28;9.93;;;7.60;;
61015;SDS011;46902;52.920;6.536;2024-01-07T02:43:54;11.13;;;6.95;;
61015;SDS011;46902;52.920;6.536;2024-01-07T02:46:20;9.70;;;6.80;;
61015;SDS011;46902;52.920;6.536;2024-01-07T02:48:47;10.80;;;7.10;;
61015;SDS011;46902;52.920;6.536;2024-01-07T02:51:13;10.68;;;6.97;;
61015;SDS011;46902;52.920;6.536;2024-01-07T02:53:39;9.98;;;7.15;;
61015;SDS011;46902;52.920;6.536;2024-01-07T02:56:05;8.43;;;6.30;;
61015;SDS011;46902;52.920;6.536;2024-01-07T02:58:33;9.13;;;6.35;;
61015;SDS011;46902;52.920;6.536;2024-01-07T03:00:59;9.35;;;5.97;;
61015;SDS011;46902;52.920;6.536;2024-01-07T03:03:25;8.25;;;5.85;;
61015;SDS011;46902;52.920;6.536;2024-01-07T03:05:51;8.73;;;5.80;;
61015;SDS011;46902;52.920;6.536;2024-01-07T03:08:17;8.55;;;5.75;;
61015;SDS011;46902;52.920;6.536;2024-01-07T03:10:43;8.60;;;5.28;;
61015;SDS011;46902;52.920;6.536;2024-01-07T03:13:10;8.98;;;5.85;;
61015;SDS011;46902;52.920;6.536;2024-01-07T03:15:37;7.93;;;5.82;;
61015;SDS011;46902;52.920;6.536;2024-01-07T03:18:03;9.88;;;5.75;;
61015;SDS011;46902;52.920;6.536;2024-01-07T03:20:29;8.80;;;5.25;;
61015;SDS011;46902;52.920;6.536;2024-01-07T03:22:55;8.95;;;5.65;;
61015;SDS011;46902;52.920;6.536;2024-01-07T03:25:21;8.65;;;5.63;;
61015;SDS011;46902;52.920;6.536;2024-01-07T03:27:47;11.60;;;6.20;;
61015;SDS011;46902;52.920;6.536;2024-01-07T03:30:13;9.27;;;5.28;;
61015;SDS011;46902;52.920;6.536;2024-01-07T03:32:39;7.93;;;5.53;;
61015;SDS011;46902;52.920;6.536;2024-01-07T03:35:05;9.93;;;5.20;;
61015;SDS011;46902;52.920;6.536;2024-01-07T03:37:32;9.40;;;5.40;;
61015;SDS011;46902;52.920;6.536;2024-01-07T03:39:58;8.13;;;5.03;;
61015;SDS011;46902;52.920;6.536;2024-01-07T03:42:24;10.50;;;5.25;;
61015;SDS011;46902;52.920;6.536;2024-01-07T03:44:50;8.50;;;5.32;;
61015;SDS011;46902;52.920;6.536;2024-01-07T03:47:16;6.68;;;5.13;;
61015;SDS011;46902;52.920;6.536;2024-01-07T03:49:42;7.82;;;5.35;;
61015;SDS011;46902;52.920;6.536;2024-01-07T03:52:08;8.55;;;5.70;;
61015;SDS011;46902;52.920;6.536;2024-01-07T03:54:34;9.00;;;5.50;;
61015;SDS011;46902;52.920;6.536;2024-01-07T03:57:00;7.72;;;5.35;;
61015;SDS011;46902;52.920;6.536;2024-01-07T03:59:26;7.72;;;5.03;;
61015;SDS011;46902;52.920;6.536;2024-01-07T04:01:55;7.53;;;5.07;;
61015;SDS011;46902;52.920;6.536;2024-01-07T04:04:22;7.10;;;5.28;;
61015;SDS011;46902;52.920;6.536;2024-01-07T04:06:48;7.13;;;4.78;;
61015;SDS011;46902;52.920;6.536;2024-01-07T04:09:14;7.30;;;4.68;;
61015;SDS011;46902;52.920;6.536;2024-01-07T04:11:40;8.55;;;4.85;;
61015;SDS011;46902;52.920;6.536;2024-01-07T04:14:08;8.05;;;4.82;;
61015;SDS011;46902;52.920;6.536;2024-01-07T04:16:34;7.82;;;5.15;;
61015;SDS011;46902;52.920;6.536;2024-01-07T04:19:00;7.80;;;5.05;;
61015;SDS011;46902;52.920;6.536;2024-01-07T04:21:26;6.40;;;4.57;;
61015;SDS011;46902;52.920;6.536;2024-01-07T04:23:53;8.55;;;4.95;;
61015;SDS011;46902;52.920;6.536;2024-01-07T04:26:19;7.22;;;4.22;;
61015;SDS011;46902;52.920;6.536;2024-01-07T04:28:44;7.53;;;4.10;;
61015;SDS011;46902;52.920;6.536;2024-01-07T04:31:10;7.07;;;4.93;;
61015;SDS011;46902;52.920;6.536;2024-01-07T04:33:36;7.53;;;4.30;;
61015;SDS011;46902;52.920;6.536;2024-01-07T04:36:02;7.57;;;4.57;;
61015;SDS011;46902;52.920;6.536;2024-01-07T04:38:31;7.20;;;4.45;;
61015;SDS011;46902;52.920;6.536;2024-01-07T04:40:57;7.85;;;4.30;;
61015;SDS011;46902;52.920;6.536;2024-01-07T04:43:23;8.13;;;4.20;;
61015;SDS011;46902;52.920;6.536;2024-01-07T04:45:49;6.47;;;4.10;;
61015;SDS011;46902;52.920;6.536;2024-01-07T04:48:15;6.18;;;3.83;;
61015;SDS011;46902;52.920;6.536;2024-01-07T04:50:41;6.53;;;4.10;;
61015;SDS011;46902;52.920;6.536;2024-01-07T04:53:08;9.23;;;4.40;;
61015;SDS011;46902;52.920;6.536;2024-01-07T04:55:34;9.35;;;4.85;;
61015;SDS011;46902;52.920;6.536;2024-01-07T04:58:00;7.30;;;4.35;;
61015;SDS011;46902;52.920;6.536;2024-01-07T05:00:26;6.65;;;4.50;;
61015;SDS011;46902;52.920;6.536;2024-01-07T05:02:52;10.02;;;4.45;;
61015;SDS011;46902;52.920;6.536;2024-01-07T05:05:18;7.07;;;4.38;;
61015;SDS011;46902;52.920;6.536;2024-01-07T05:07:44;6.07;;;4.07;;
61015;SDS011;46902;52.920;6.536;2024-01-07T05:10:10;6.95;;;4.10;;
61015;SDS011;46902;52.920;6.536;2024-01-07T05:12:36;7.95;;;3.95;;
61015;SDS011;46902;52.920;6.536;2024-01-07T05:15:02;6.45;;;3.97;;
61015;SDS011;46902;52.920;6.536;2024-01-07T05:17:29;5.78;;;3.92;;
61015;SDS011;46902;52.920;6.536;2024-01-07T05:19:55;6.35;;;3.75;;
61015;SDS011;46902;52.920;6.536;2024-01-07T05:22:21;7.05;;;3.85;;
61015;SDS011;46902;52.920;6.536;2024-01-07T05:24:47;6.75;;;3.65;;
61015;SDS011;46902;52.920;6.536;2024-01-07T05:27:13;6.03;;;3.28;;
61015;SDS011;46902;52.920;6.536;2024-01-07T05:29:39;5.68;;;3.55;;
61015;SDS011;46902;52.920;6.536;2024-01-07T05:32:05;5.38;;;2.72;;
61015;SDS011;46902;52.920;6.536;2024-01-07T05:34:31;6.10;;;3.30;;
61015;SDS011;46902;52.920;6.536;2024-01-07T05:36:58;5.50;;;3.15;;
61015;SDS011;46902;52.920;6.536;2024-01-07T05:39:24;5.25;;;2.72;;
61015;SDS011;46902;52.920;6.536;2024-01-07T05:41:50;5.15;;;2.40;;
61015;SDS011;46902;52.920;6.536;2024-01-07T05:44:16;5.88;;;2.75;;
61015;SDS011;46902;52.920;6.536;2024-01-07T05:46:42;4.75;;;2.60;;
61015;SDS011;46902;52.920;6.536;2024-01-07T05:49:08;4.90;;;2.30;;
61015;SDS011;46902;52.920;6.536;2024-01-07T05:51:38;5.05;;;2.40;;
61015;SDS011;46902;52.920;6.536;2024-01-07T05:54:04;5.68;;;2.15;;
61015;SDS011;46902;52.920;6.536;2024-01-07T05:56:29;5.35;;;2.40;;
61015;SDS011;46902;52.920;6.536;2024-01-07T05:58:56;3.88;;;2.30;;
61015;SDS011;46902;52.920;6.536;2024-01-07T06:01:22;4.95;;;2.20;;
61015;SDS011;46902;52.920;6.536;2024-01-07T06:03:48;4.18;;;2.17;;
61015;SDS011;46902;52.920;6.536;2024-01-07T06:06:14;5.38;;;2.28;;
61015;SDS011;46902;52.920;6.536;2024-01-07T06:08:43;4.55;;;2.13;;
61015;SDS011;46902;52.920;6.536;2024-01-07T06:11:09;4.05;;;2.08;;
61015;SDS011;46902;52.920;6.536;2024-01-07T06:13:43;6.28;;;2.20;;
61015;SDS011;46902;52.920;6.536;2024-01-07T06:16:10;4.40;;;2.25;;
61015;SDS011;46902;52.920;6.536;2024-01-07T06:18:36;4.95;;;2.10;;
61015;SDS011;46902;52.920;6.536;2024-01-07T06:21:02;3.55;;;1.92;;
61015;SDS011;46902;52.920;6.536;2024-01-07T06:23:28;3.95;;;2.00;;
61015;SDS011;46902;52.920;6.536;2024-01-07T06:25:54;2.70;;;1.60;;
61015;SDS011;46902;52.920;6.536;2024-01-07T06:28:20;6.53;;;2.47;;
61015;SDS011;46902;52.920;6.536;2024-01-07T06:30:46;4.85;;;2.05;;
61015;SDS011;46902;52.920;6.536;2024-01-07T06:33:12;3.95;;;1.92;;
61015;SDS011;46902;52.920;6.536;2024-01-07T06:35:38;4.32;;;1.90;;
61015;SDS011;46902;52.920;6.536;2024-01-07T06:38:04;3.83;;;1.55;;
61015;SDS011;46902;52.920;6.536;2024-01-07T06:40:30;4.60;;;1.60;;
61015;SDS011;46902;52.920;6.536;2024-01-07T06:42:56;4.40;;;1.70;;
61015;SDS011;46902;52.920;6.536;2024-01-07T06:45:22;5.95;;;2.40;;
61015;SDS011;46902;52.920;6.536;2024-01-07T06:47:48;2.70;;;1.45;;
61015;SDS011;46902;52.920;6.536;2024-01-07T06:50:14;4.82;;;1.77;;
61015;SDS011;46902;52.920;6.536;2024-01-07T06:52:40;5.25;;;1.77;;
61015;SDS011;46902;52.920;6.536;2024-01-07T06:55:06;3.22;;;1.70;;
61015;SDS011;46902;52.920;6.536;2024-01-07T06:57:33;3.00;;;1.70;;
61015;SDS011;46902;52.920;6.536;2024-01-07T06:59:59;4.07;;;2.25;;
61015;SDS011;46902;52.920;6.536;2024-01-07T07:02:25;3.03;;;1.77;;
61015;SDS011;46902;52.920;6.536;2024-01-07T07:04:51;3.00;;;1.45;;
61015;SDS011;46902;52.920;6.536;2024-01-07T07:07:17;3.65;;;1.60;;
61015;SDS011;46902;52.920;6.536;2024-01-07T07:09:43;3.67;;;1.75;;
61015;SDS011;46902;52.920;6.536;2024-01-07T07:12:09;5.38;;;1.75;;
61015;SDS011;46902;52.920;6.536;2024-01-07T07:14:35;5.53;;;1.73;;
61015;SDS011;46902;52.920;6.536;2024-01-07T07:17:01;3.75;;;1.83;;
61015;SDS011;46902;52.920;6.536;2024-01-07T07:19:28;3.13;;;1.50;;
61015;SDS011;46902;52.920;6.536;2024-01-07T07:21:54;3.90;;;1.75;;
61015;SDS011;46902;52.920;6.536;2024-01-07T07:24:20;3.55;;;1.63;;
61015;SDS011;46902;52.920;6.536;2024-01-07T07:26:46;4.05;;;1.70;;
61015;SDS011;46902;52.920;6.536;2024-01-07T07:29:12;4.78;;;1.90;;
61015;SDS011;46902;52.920;6.536;2024-01-07T07:31:38;2.63;;;1.35;;
61015;SDS011;46902;52.920;6.536;2024-01-07T07:34:04;4.40;;;1.70;;
61015;SDS011;46902;52.920;6.536;2024-01-07T07:36:30;4.82;;;1.65;;
61015;SDS011;46902;52.920;6.536;2024-01-07T07:38:56;4.30;;;1.55;;
61015;SDS011;46902;52.920;6.536;2024-01-07T07:41:22;3.67;;;1.65;;
61015;SDS011;46902;52.920;6.536;2024-01-07T07:43:48;3.22;;;1.65;;
61015;SDS011;46902;52.920;6.536;2024-01-07T07:46:14;3.50;;;1.15;;
61015;SDS011;46902;52.920;6.536;2024-01-07T07:48:41;2.33;;;1.20;;
61015;SDS011;46902;52.920;6.536;2024-01-07T07:51:07;3.38;;;1.45;;
61015;SDS011;46902;52.920;6.536;2024-01-07T07:53:33;4.70;;;1.63;;
61015;SDS011;46902;52.920;6.536;2024-01-07T07:56:00;3.90;;;1.60;;
61015;SDS011;46902;52.920;6.536;2024-01-07T07:58:26;3.05;;;1.38;;
61015;SDS011;46902;52.920;6.536;2024-01-07T08:00:52;3.90;;;1.52;;
61015;SDS011;46902;52.920;6.536;2024-01-07T08:03:18;4.38;;;1.95;;
61015;SDS011;46902;52.920;6.536;2024-01-07T08:05:44;5.00;;;1.48;;
61015;SDS011;46902;52.920;6.536;2024-01-07T08:08:10;3.60;;;1.30;;
61015;SDS011;46902;52.920;6.536;2024-01-07T08:10:36;5.97;;;1.40;;
61015;SDS011;46902;52.920;6.536;2024-01-07T08:13:02;3.20;;;1.33;;
61015;SDS011;46902;52.920;6.536;2024-01-07T08:15:28;2.28;;;1.10;;
61015;SDS011;46902;52.920;6.536;2024-01-07T08:17:54;3.25;;;1.30;;
61015;SDS011;46902;52.920;6.536;2024-01-07T08:20:20;3.80;;;1.40;;
61015;SDS011;46902;52.920;6.536;2024-01-07T08:22:46;4.65;;;1.05;;
61015;SDS011;46902;52.920;6.536;2024-01-07T08:25:12;2.60;;;1.20;;
61015;SDS011;46902;52.920;6.536;2024-01-07T08:27:40;3.80;;;1.38;;
61015;SDS011;46902;52.920;6.536;2024-01-07T08:30:06;3.60;;;1.55;;
61015;SDS011;46902;52.920;6.536;2024-01-07T08:32:32;3.92;;;1.50;;
61015;SDS011;46902;52.920;6.536;2024-01-07T08:35:00;3.72;;;1.50;;
61015;SDS011;46902;52.920;6.536;2024-01-07T08:37:26;2.65;;;1.30;;
61015;SDS011;46902;52.920;6.536;2024-01-07T08:39:52;3.22;;;1.50;;
61015;SDS011;46902;52.920;6.536;2024-01-07T08:42:18;7.03;;;1.42;;
61015;SDS011;46902;52.920;6.536;2024-01-07T08:44:44;3.28;;;1.10;;
61015;SDS011;46902;52.920;6.536;2024-01-07T08:47:10;2.95;;;1.38;;
61015;SDS011;46902;52.920;6.536;2024-01-07T08:49:36;3.97;;;1.48;;
61015;SDS011;46902;52.920;6.536;2024-01-07T08:52:03;2.92;;;1.55;;
61015;SDS011;46902;52.920;6.536;2024-01-07T08:54:29;2.67;;;1.40;;
61015;SDS011;46902;52.920;6.536;2024-01-07T08:56:55;3.35;;;1.38;;
61015;SDS011;46902;52.920;6.536;2024-01-07T08:59:21;4.88;;;1.50;;
61015;SDS011;46902;52.920;6.536;2024-01-07T09:01:47;2.80;;;1.52;;
61015;SDS011;46902;52.920;6.536;2024-01-07T09:04:13;3.97;;;1.23;;
61015;SDS011;46902;52.920;6.536;2024-01-07T09:06:41;12.60;;;1.98;;
61015;SDS011;46902;52.920;6.536;2024-01-07T09:09:07;2.83;;;1.25;;
61015;SDS011;46902;52.920;6.536;2024-01-07T09:11:33;1.88;;;1.15;;
61015;SDS011;46902;52.920;6.536;2024-01-07T09:14:00;3.42;;;1.50;;
61015;SDS011;46902;52.920;6.536;2024-01-07T09:16:26;3.63;;;1.30;;
61015;SDS011;46902;52.920;6.536;2024-01-07T09:18:52;3.92;;;1.30;;
61015;SDS011;46902;52.920;6.536;2024-01-07T09:21:18;4.32;;;1.20;;
61015;SDS011;46902;52.920;6.536;2024-01-07T09:23:44;4.13;;;1.38;;
61015;SDS011;46902;52.920;6.536;2024-01-07T09:26:10;5.32;;;1.40;;
61015;SDS011;46902;52.920;6.536;2024-01-07T09:28:36;3.35;;;1.08;;
61015;SDS011;46902;52.920;6.536;2024-01-07T09:31:03;2.83;;;1.33;;
61015;SDS011;46902;52.920;6.536;2024-01-07T09:33:29;2.33;;;1.00;;
61015;SDS011;46902;52.920;6.536;2024-01-07T09:35:55;3.38;;;1.10;;
61015;SDS011;46902;52.920;6.536;2024-01-07T09:38:21;2.65;;;1.00;;
61015;SDS011;46902;52.920;6.536;2024-01-07T09:40:47;3.10;;;1.10;;
61015;SDS011;46902;52.920;6.536;2024-01-07T09:43:13;4.97;;;1.80;;
61015;SDS011;46902;52.920;6.536;2024-01-07T09:45:40;6.72;;;1.48;;
61015;SDS011;46902;52.920;6.536;2024-01-07T09:48:07;3.72;;;1.48;;
61015;SDS011;46902;52.920;6.536;2024-01-07T09:50:33;2.45;;;1.20;;
61015;SDS011;46902;52.920;6.536;2024-01-07T09:52:59;2.50;;;1.15;;
61015;SDS011;46902;52.920;6.536;2024-01-07T09:55:31;3.45;;;1.10;;
61015;SDS011;46902;52.920;6.536;2024-01-07T09:57:58;3.00;;;1.42;;
61015;SDS011;46902;52.920;6.536;2024-01-07T10:00:26;4.05;;;1.30;;
61015;SDS011;46902;52.920;6.536;2024-01-07T10:02:52;3.00;;;1.20;;
61015;SDS011;46902;52.920;6.536;2024-01-07T10:05:18;3.58;;;1.42;;
61015;SDS011;46902;52.920;6.536;2024-01-07T10:07:44;2.53;;;1.08;;
61015;SDS011;46902;52.920;6.536;2024-01-07T10:10:14;3.60;;;1.42;;
61015;SDS011;46902;52.920;6.536;2024-01-07T10:12:40;2.58;;;1.33;;
61015;SDS011;46902;52.920;6.536;2024-01-07T10:15:06;3.80;;;1.27;;
61015;SDS011;46902;52.920;6.536;2024-01-07T10:17:32;3.95;;;1.15;;
61015;SDS011;46902;52.920;6.536;2024-01-07T10:19:58;2.75;;;1.00;;
61015;SDS011;46902;52.920;6.536;2024-01-07T10:22:26;3.88;;;1.20;;
61015;SDS011;46902;52.920;6.536;2024-01-07T10:24:52;6.57;;;1.20;;
61015;SDS011;46902;52.920;6.536;2024-01-07T10:27:18;2.72;;;1.20;;
61015;SDS011;46902;52.920;6.536;2024-01-07T10:29:46;3.00;;;1.13;;
61015;SDS011;46902;52.920;6.536;2024-01-07T10:32:15;3.92;;;1.50;;
61015;SDS011;46902;52.920;6.536;2024-01-07T10:34:41;3.33;;;1.30;;
61015;SDS011;46902;52.920;6.536;2024-01-07T10:37:09;3.25;;;1.83;;
61015;SDS011;46902;52.920;6.536;2024-01-07T10:39:35;5.22;;;1.70;;
61015;SDS011;46902;52.920;6.536;2024-01-07T10:42:01;3.53;;;1.40;;
61015;SDS011;46902;52.920;6.536;2024-01-07T10:44:31;2.58;;;1.23;;
61015;SDS011;46902;52.920;6.536;2024-01-07T10:46:58;4.72;;;1.35;;
61015;SDS011;46902;52.920;6.536;2024-01-07T10:49:24;5.85;;;1.60;;
61015;SDS011;46902;52.920;6.536;2024-01-07T10:54:27;3.05;;;1.40;;
61015;SDS011;46902;52.920;6.536;2024-01-07T10:56:54;3.13;;;1.67;;
61015;SDS011;46902;52.920;6.536;2024-01-07T10:59:23;2.65;;;1.30;;
61015;SDS011;46902;52.920;6.536;2024-01-07T11:01:49;4.95;;;1.48;;
61015;SDS011;46902;52.920;6.536;2024-01-07T11:06:52;3.10;;;1.08;;
61015;SDS011;46902;52.920;6.536;2024-01-07T11:11:48;2.88;;;1.00;;
61015;SDS011;46902;52.920;6.536;2024-01-07T11:17:00;2.67;;;1.30;;
61015;SDS011;46902;52.920;6.536;2024-01-07T11:19:27;3.08;;;1.20;;
61015;SDS011;46902;52.920;6.536;2024-01-07T11:21:57;4.38;;;1.40;;
61015;SDS011;46902;52.920;6.536;2024-01-07T11:24:40;3.58;;;1.10;;
61015;SDS011;46902;52.920;6.536;2024-01-07T11:27:10;3.35;;;1.20;;
61015;SDS011;46902;52.920;6.536;2024-01-07T11:29:36;3.22;;;1.25;;
61015;SDS011;46902;52.920;6.536;2024-01-07T11:32:02;2.35;;;0.85;;
61015;SDS011;46902;52.920;6.536;2024-01-07T11:34:41;4.20;;;1.15;;
61015;SDS011;46902;52.920;6.536;2024-01-07T11:37:17;4.22;;;1.20;;
61015;SDS011;46902;52.920;6.536;2024-01-07T11:39:43;3.95;;;1.30;;
61015;SDS011;46902;52.920;6.536;2024-01-07T11:42:10;3.72;;;1.30;;
61015;SDS011;46902;52.920;6.536;2024-01-07T11:44:45;2.88;;;1.50;;
61015;SDS011;46902;52.920;6.536;2024-01-07T11:47:12;4.75;;;1.45;;
61015;SDS011;46902;52.920;6.536;2024-01-07T11:49:39;3.58;;;1.30;;
61015;SDS011;46902;52.920;6.536;2024-01-07T11:52:05;3.70;;;1.38;;
61015;SDS011;46902;52.920;6.536;2024-01-07T11:54:31;3.85;;;1.52;;
61015;SDS011;46902;52.920;6.536;2024-01-07T11:56:57;3.25;;;1.40;;
61015;SDS011;46902;52.920;6.536;2024-01-07T11:59:23;4.75;;;1.50;;
61015;SDS011;46902;52.920;6.536;2024-01-07T12:01:49;3.05;;;1.60;;
61015;SDS011;46902;52.920;6.536;2024-01-07T12:04:15;2.85;;;1.48;;
61015;SDS011;46902;52.920;6.536;2024-01-07T12:06:41;3.78;;;1.73;;
61015;SDS011;46902;52.920;6.536;2024-01-07T12:09:07;4.85;;;2.40;;
61015;SDS011;46902;52.920;6.536;2024-01-07T12:11:34;5.13;;;2.53;;
61015;SDS011;46902;52.920;6.536;2024-01-07T12:14:00;5.03;;;2.03;;
61015;SDS011;46902;52.920;6.536;2024-01-07T12:16:26;4.05;;;1.70;;
61015;SDS011;46902;52.920;6.536;2024-01-07T12:18:52;4.93;;;1.75;;
61015;SDS011;46902;52.920;6.536;2024-01-07T12:21:18;3.05;;;1.98;;
61015;SDS011;46902;52.920;6.536;2024-01-07T12:23:48;3.80;;;1.73;;
61015;SDS011;46902;52.920;6.536;2024-01-07T12:26:15;4.90;;;1.48;;
61015;SDS011;46902;52.920;6.536;2024-01-07T12:28:42;3.03;;;1.63;;
61015;SDS011;46902;52.920;6.536;2024-01-07T12:31:08;4.35;;;1.70;;
61015;SDS011;46902;52.920;6.536;2024-01-07T12:33:36;3.60;;;1.75;;
61015;SDS011;46902;52.920;6.536;2024-01-07T12:36:03;4.93;;;2.00;;
61015;SDS011;46902;52.920;6.536;2024-01-07T12:38:29;5.55;;;2.20;;
61015;SDS011;46902;52.920;6.536;2024-01-07T12:40:55;4.03;;;1.90;;
61015;SDS011;46902;52.920;6.536;2024-01-07T12:43:21;4.65;;;2.20;;
61015;SDS011;46902;52.920;6.536;2024-01-07T12:45:48;6.05;;;2.80;;
61015;SDS011;46902;52.920;6.536;2024-01-07T12:48:14;5.43;;;2.60;;
61015;SDS011;46902;52.920;6.536;2024-01-07T12:50:40;5.63;;;2.83;;
61015;SDS011;46902;52.920;6.536;2024-01-07T12:53:06;5.95;;;2.88;;
61015;SDS011;46902;52.920;6.536;2024-01-07T12:55:33;5.50;;;2.33;;
61015;SDS011;46902;52.920;6.536;2024-01-07T12:57:59;4.78;;;2.65;;
61015;SDS011;46902;52.920;6.536;2024-01-07T13:00:25;5.32;;;2.67;;
61015;SDS011;46902;52.920;6.536;2024-01-07T13:02:53;7.55;;;2.58;;
61015;SDS011;46902;52.920;6.536;2024-01-07T13:05:19;4.78;;;2.97;;
61015;SDS011;46902;52.920;6.536;2024-01-07T13:07:46;5.88;;;3.35;;
61015;SDS011;46902;52.920;6.536;2024-01-07T13:10:12;5.38;;;2.75;;
61015;SDS011;46902;52.920;6.536;2024-01-07T13:12:38;5.55;;;2.67;;
61015;SDS011;46902;52.920;6.536;2024-01-07T13:15:04;4.55;;;2.60;;
61015;SDS011;46902;52.920;6.536;2024-01-07T13:17:31;6.82;;;2.92;;
61015;SDS011;46902;52.920;6.536;2024-01-07T13:19:58;5.15;;;2.67;;
61015;SDS011;46902;52.920;6.536;2024-01-07T13:22:24;6.38;;;2.97;;
61015;SDS011;46902;52.920;6.536;2024-01-07T13:24:50;4.97;;;2.78;;
61015;SDS011;46902;52.920;6.536;2024-01-07T13:27:16;8.18;;;3.08;;
61015;SDS011;46902;52.920;6.536;2024-01-07T13:29:47;6.07;;;3.10;;
61015;SDS011;46902;52.920;6.536;2024-01-07T13:32:13;5.22;;;2.65;;
61015;SDS011;46902;52.920;6.536;2024-01-07T13:34:43;5.30;;;2.58;;
61015;SDS011;46902;52.920;6.536;2024-01-07T13:37:09;7.20;;;3.03;;
61015;SDS011;46902;52.920;6.536;2024-01-07T13:39:35;7.43;;;3.00;;
61015;SDS011;46902;52.920;6.536;2024-01-07T13:42:02;6.80;;;2.88;;
61015;SDS011;46902;52.920;6.536;2024-01-07T13:44:28;5.47;;;2.88;;
61015;SDS011;46902;52.920;6.536;2024-01-07T13:46:55;6.47;;;2.80;;
61015;SDS011;46902;52.920;6.536;2024-01-07T13:49:21;5.30;;;2.58;;
61015;SDS011;46902;52.920;6.536;2024-01-07T13:51:47;9.10;;;2.97;;
61015;SDS011;46902;52.920;6.536;2024-01-07T13:54:13;6.68;;;2.92;;
61015;SDS011;46902;52.920;6.536;2024-01-07T13:56:41;5.47;;;2.97;;
61015;SDS011;46902;52.920;6.536;2024-01-07T13:59:08;7.30;;;3.35;;
61015;SDS011;46902;52.920;6.536;2024-01-07T14:01:34;5.90;;;3.20;;
61015;SDS011;46902;52.920;6.536;2024-01-07T14:04:00;6.35;;;3.13;;
61015;SDS011;46902;52.920;6.536;2024-01-07T14:06:26;5.60;;;3.08;;
61015;SDS011;46902;52.920;6.536;2024-01-07T14:08:52;5.18;;;3.00;;
61015;SDS011;46902;52.920;6.536;2024-01-07T14:11:19;6.68;;;3.03;;
61015;SDS011;46902;52.920;6.536;2024-01-07T14:13:46;4.50;;;3.13;;
61015;SDS011;46902;52.920;6.536;2024-01-07T14:16:14;7.68;;;3.25;;
61015;SDS011;46902;52.920;6.536;2024-01-07T14:18:40;6.63;;;3.28;;
61015;SDS011;46902;52.920;6.536;2024-01-07T14:21:06;6.47;;;2.50;;
61015;SDS011;46902;52.920;6.536;2024-01-07T14:23:34;5.60;;;2.38;;
61015;SDS011;46902;52.920;6.536;2024-01-07T14:26:00;6.03;;;2.50;;
61015;SDS011;46902;52.920;6.536;2024-01-07T14:28:27;6.93;;;2.60;;
61015;SDS011;46902;52.920;6.536;2024-01-07T14:30:53;5.65;;;2.35;;
61015;SDS011;46902;52.920;6.536;2024-01-07T14:33:19;6.72;;;2.60;;
61015;SDS011;46902;52.920;6.536;2024-01-07T14:35:45;6.40;;;2.70;;
61015;SDS011;46902;52.920;6.536;2024-01-07T14:38:11;4.20;;;2.33;;
61015;SDS011;46902;52.920;6.536;2024-01-07T14:40:37;6.97;;;2.58;;
61015;SDS011;46902;52.920;6.536;2024-01-07T14:43:06;6.43;;;3.25;;
61015;SDS011;46902;52.920;6.536;2024-01-07T14:45:32;6.47;;;2.97;;
61015;SDS011;46902;52.920;6.536;2024-01-07T14:47:58;7.43;;;2.80;;